Terminal Aerodrome Forecast
Issued by NWS Wakefield, VA

Home | Current Version | Previous Version | Text Only | Print | Product List | Glossary On
Versions: 1 2 3 4 5 6 7 8 9 10 11 12 13 14 15 16
000
FTUS41 KAKQ 032338
TAFORF
TAF
KORF 032338Z 0400/0424 10008KT P6SM -RA BKN045 OVC100
      TEMPO 0401/0405 1SM TSRA BKN025CB
     FM040500 15005KT 4SM -RA BKN030
     FM040800 19010KT 5SM -SHRA SCT015 OVC035
     FM041700 26010G18KT P6SM VCSH BKN040 BKN100=

USA.gov is the U.S. government's official web portal to all federal, state and local government web resources and services.